Time;durP1;ratioP1;P1;durP2;ratioP2;P2;SDS_P1;SDS_P2;PMS_P1;PMS_P2;Temp;Humidity;BMP_temperature;BMP_pressure;BME280_temperature;BME280_humidity;BME280_pressure;Samples;Min_cycle;Max_cycle;Signal;HPM_P1;HPM_P2
2022/07/28 00:00:48;;;;;;;1.47;1.13;;;18.70;61.20;;;;;;5107900;28;20758;-82
2022/07/28 00:03:15;;;;;;;1.20;1.10;;;18.60;61.00;;;;;;5107141;28;21278;-82
2022/07/28 00:05:42;;;;;;;1.10;1.00;;;18.50;62.50;;;;;;5108200;28;20701;-82
2022/07/28 00:08:11;;;;;;;1.20;1.20;;;18.50;62.40;;;;;;5107998;28;20707;-83
2022/07/28 00:10:38;;;;;;;1.23;1.13;;;18.40;62.30;;;;;;5108995;28;20723;-82
2022/07/28 00:13:05;;;;;;;1.10;1.07;;;18.50;62.70;;;;;;5107287;28;20662;-82
2022/07/28 00:15:33;;;;;;;1.30;1.20;;;18.20;62.50;;;;;;5108310;28;20730;-82
2022/07/28 00:18:00;;;;;;;1.83;1.10;;;18.20;62.60;;;;;;5108075;28;21199;-82
2022/07/28 00:20:29;;;;;;;1.23;1.10;;;18.20;64.40;;;;;;5108249;28;20664;-82
2022/07/28 00:22:58;;;;;;;0.80;0.80;;;18.10;63.90;;;;;;5107973;28;20619;-82
2022/07/28 00:25:27;;;;;;;1.00;1.00;;;18.10;64.00;;;;;;5107600;28;20620;-82
2022/07/28 00:27:54;;;;;;;0.90;0.90;;;18.00;65.20;;;;;;5107242;28;20689;-82
2022/07/28 00:30:21;;;;;;;1.47;1.30;;;18.00;64.00;;;;;;5108765;28;20661;-82
2022/07/28 00:32:49;;;;;;;1.07;1.07;;;18.00;64.90;;;;;;5106947;28;20619;-82
2022/07/28 00:35:16;;;;;;;1.30;1.20;;;18.00;65.40;;;;;;5108727;28;20616;-82
2022/07/28 00:37:44;;;;;;;1.27;1.20;;;18.00;64.20;;;;;;5107630;28;20615;-82
2022/07/28 00:40:12;;;;;;;1.30;1.20;;;18.00;63.80;;;;;;5108176;28;20655;-82
2022/07/28 00:42:40;;;;;;;1.20;1.10;;;18.00;64.50;;;;;;5106873;28;20636;-82
2022/07/28 00:45:09;;;;;;;1.17;0.80;;;17.90;63.70;;;;;;5108018;27;20631;-82
2022/07/28 00:47:37;;;;;;;1.70;0.87;;;17.90;63.80;;;;;;5107944;28;21020;-82
2022/07/28 00:50:05;;;;;;;1.10;1.10;;;17.60;63.50;;;;;;5107431;28;20652;-82
2022/07/28 00:52:34;;;;;;;3.13;1.13;;;17.70;63.80;;;;;;5106444;28;21009;-82
2022/07/28 00:55:03;;;;;;;1.63;1.07;;;17.70;64.40;;;;;;5107154;28;20656;-82
2022/07/28 00:57:30;;;;;;;0.90;0.90;;;17.60;65.10;;;;;;5108325;28;20620;-82
2022/07/28 00:59:58;;;;;;;0.73;0.73;;;17.50;65.20;;;;;;5107740;28;20659;-82
2022/07/28 01:02:25;;;;;;;1.23;1.13;;;17.50;65.40;;;;;;5106576;28;20624;-82
2022/07/28 01:04:52;;;;;;;1.33;1.20;;;17.40;66.00;;;;;;5108264;28;20610;-82
2022/07/28 01:07:27;;;;;;;1.70;1.60;;;17.40;67.00;;;;;;5107374;28;20616;-82
2022/07/28 01:10:04;;;;;;;3.67;1.40;;;17.40;65.90;;;;;;5108105;28;20717;-82
2022/07/28 01:12:42;;;;;;;1.23;1.13;;;17.30;67.00;;;;;;5096361;28;20615;-82
2022/07/28 01:15:25;;;;;;;1.40;1.30;;;17.30;67.20;;;;;;5107569;28;20623;-82
2022/07/28 01:18:01;;;;;;;1.23;1.17;;;17.30;67.10;;;;;;5106761;28;21275;-82
2022/07/28 01:20:34;;;;;;;1.67;1.00;;;17.20;66.90;;;;;;5107714;28;20662;-82
2022/07/28 01:23:36;;;;;;;1.07;0.90;;;17.20;66.40;;;;;;5106810;28;20630;-82
2022/07/28 01:26:34;;;;;;;1.47;1.27;;;17.10;66.60;;;;;;5106374;28;20624;-82
2022/07/28 01:29:07;;;;;;;1.73;1.00;;;17.10;66.90;;;;;;5107301;28;20635;-82
2022/07/28 01:31:40;;;;;;;1.13;1.13;;;17.00;66.80;;;;;;5107266;28;20611;-81
2022/07/28 01:34:14;;;;;;;1.30;1.20;;;17.00;67.40;;;;;;5107068;28;21297;-82
2022/07/28 01:36:45;;;;;;;1.20;1.13;;;17.10;68.00;;;;;;5107044;28;20659;-82
2022/07/28 01:39:15;;;;;;;1.17;0.90;;;17.10;67.80;;;;;;5107614;28;21061;-82
2022/07/28 01:41:44;;;;;;;1.70;1.60;;;17.10;67.80;;;;;;5106658;28;20990;-82
2022/07/28 01:44:16;;;;;;;1.00;0.90;;;17.00;67.60;;;;;;5106598;28;20628;-82
2022/07/28 01:46:47;;;;;;;1.40;1.30;;;16.90;67.20;;;;;;5107579;28;20696;-82
2022/07/28 01:49:16;;;;;;;0.77;0.77;;;16.80;67.10;;;;;;5106937;28;21281;-82
2022/07/28 01:51:46;;;;;;;1.57;1.47;;;16.80;68.30;;;;;;5107184;28;20642;-82
2022/07/28 01:54:15;;;;;;;1.77;1.30;;;16.80;68.00;;;;;;5106445;28;21025;-82
2022/07/28 01:56:43;;;;;;;1.47;1.37;;;16.70;68.60;;;;;;5107349;28;20677;-82
2022/07/28 01:59:12;;;;;;;1.90;0.93;;;16.60;68.70;;;;;;5095503;28;20640;-82
2022/07/28 02:01:45;;;;;;;1.87;1.30;;;16.70;69.20;;;;;;5106779;28;20648;-82
2022/07/28 02:04:15;;;;;;;1.57;1.50;;;16.70;70.30;;;;;;5106841;28;20765;-82
2022/07/28 02:06:43;;;;;;;1.77;1.37;;;16.60;70.30;;;;;;5107059;28;20623;-82
2022/07/28 02:09:12;;;;;;;0.70;0.70;;;16.40;70.20;;;;;;5087132;28;21504;-82
2022/07/28 02:11:41;;;;;;;1.23;1.00;;;16.50;69.80;;;;;;5103500;28;20986;-82
2022/07/28 02:14:10;;;;;;;1.40;1.30;;;16.50;71.00;;;;;;5105973;28;21228;-82
2022/07/28 02:16:41;;;;;;;1.57;1.47;;;16.40;70.70;;;;;;5106331;28;20712;-82
2022/07/28 02:19:11;;;;;;;1.40;1.30;;;16.30;71.30;;;;;;5087543;28;20601;-82
2022/07/28 02:21:39;;;;;;;1.03;1.03;;;16.40;70.60;;;;;;5104580;28;20660;-82
2022/07/28 02:24:07;;;;;;;1.70;1.40;;;16.30;70.90;;;;;;5106228;28;20685;-81
2022/07/28 02:26:37;;;;;;;1.23;0.83;;;16.30;72.10;;;;;;5105984;28;20703;-81
2022/07/28 02:29:07;;;;;;;1.50;1.40;;;16.40;71.90;;;;;;5106939;28;20710;-82
2022/07/28 02:31:44;;;;;;;1.40;1.30;;;16.30;71.30;;;;;;5106013;28;20752;-82
2022/07/28 02:34:14;;;;;;;1.30;1.20;;;16.20;72.20;;;;;;5098559;28;20624;-82
2022/07/28 02:36:49;;;;;;;1.37;1.27;;;16.20;72.30;;;;;;5106786;28;20719;-81
2022/07/28 02:39:20;;;;;;;1.00;0.90;;;16.10;72.30;;;;;;5106219;28;20619;-82
2022/07/28 02:41:51;;;;;;;1.53;1.30;;;16.10;73.00;;;;;;5106368;28;20692;-81
2022/07/28 02:44:27;;;;;;;1.10;1.10;;;16.10;72.80;;;;;;5106456;28;20723;-81
2022/07/28 02:46:56;;;;;;;1.93;1.50;;;16.10;73.40;;;;;;5106876;28;20638;-82
2022/07/28 02:49:29;;;;;;;0.83;0.83;;;16.10;72.30;;;;;;5091427;28;20659;-82
2022/07/28 02:52:00;;;;;;;1.27;1.20;;;16.10;72.80;;;;;;5106643;28;20623;-82
2022/07/28 02:54:27;;;;;;;0.73;0.73;;;16.10;72.60;;;;;;5107440;28;20659;-82
2022/07/28 02:56:55;;;;;;;2.00;1.37;;;16.10;73.80;;;;;;5110041;27;20719;-82
2022/07/28 02:59:24;;;;;;;1.43;1.33;;;16.10;72.90;;;;;;5110294;28;21103;-82
2022/07/28 03:01:52;;;;;;;1.60;1.50;;;16.10;73.20;;;;;;5109488;28;20694;-82
2022/07/28 03:04:55;;;;;;;3.37;1.63;;;16.00;72.80;;;;;;5110015;28;20618;-82
2022/07/28 03:07:08;;;;;;;2.37;1.80;;;16.00;73.60;;;;;;5109978;28;20635;-82
2022/07/28 03:09:39;;;;;;;1.00;0.90;;;16.00;73.50;;;;;;5110438;28;20648;-81
2022/07/28 03:12:07;;;;;;;1.47;1.37;;;15.90;74.10;;;;;;5109335;28;20726;-82
2022/07/28 03:14:34;;;;;;;1.27;1.17;;;15.90;74.10;;;;;;5109880;28;20635;-82
2022/07/28 03:17:00;;;;;;;1.20;1.10;;;15.90;73.80;;;;;;5109231;28;20691;-82
2022/07/28 03:19:27;;;;;;;0.90;0.90;;;15.90;73.40;;;;;;5109762;28;21261;-82
2022/07/28 03:21:54;;;;;;;1.37;1.27;;;15.80;73.80;;;;;;5109701;28;20681;-82
2022/07/28 03:24:24;;;;;;;1.43;1.23;;;15.80;74.30;;;;;;5109315;28;20654;-82
2022/07/28 03:26:59;;;;;;;3.80;1.50;;;15.70;74.90;;;;;;5108794;28;20654;-82
2022/07/28 03:29:28;;;;;;;1.63;1.53;;;15.60;74.70;;;;;;5090179;28;20622;-81
2022/07/28 03:31:58;;;;;;;1.70;1.30;;;15.50;75.70;;;;;;5108298;28;20627;-81
2022/07/28 03:34:25;;;;;;;1.33;1.23;;;15.40;75.90;;;;;;5110001;28;20620;-81
2022/07/28 03:36:57;;;;;;;1.20;1.07;;;15.50;76.30;;;;;;5109712;28;20723;-81
2022/07/28 03:39:36;;;;;;;3.00;2.70;;;15.50;76.40;;;;;;5109744;28;20668;-82
2022/07/28 03:42:05;;;;;;;7.60;4.30;;;15.50;76.70;;;;;;5109103;28;20754;-82
2022/07/28 03:44:32;;;;;;;2.50;2.00;;;15.50;76.10;;;;;;5109235;28;20615;-81
2022/07/28 03:46:59;;;;;;;3.37;2.97;;;15.50;76.00;;;;;;5109185;28;20747;-82
2022/07/28 03:49:26;;;;;;;1.57;1.43;;;15.50;76.50;;;;;;5109164;28;20615;-82
2022/07/28 03:51:53;;;;;;;1.60;1.50;;;15.40;76.50;;;;;;5108246;28;21248;-81
2022/07/28 03:54:20;;;;;;;1.57;1.47;;;15.30;76.70;;;;;;5109337;28;20672;-82
2022/07/28 03:56:48;;;;;;;3.60;1.50;;;15.40;76.50;;;;;;5103750;28;20992;-81
2022/07/28 03:59:15;;;;;;;1.23;1.13;;;15.50;75.90;;;;;;5098642;28;20627;-82
2022/07/28 04:01:43;;;;;;;1.40;1.30;;;15.50;75.40;;;;;;5108711;28;20691;-82
2022/07/28 04:04:10;;;;;;;1.70;1.60;;;15.40;75.80;;;;;;5108119;28;20995;-81
2022/07/28 04:06:37;;;;;;;1.80;1.70;;;15.50;75.90;;;;;;5108845;28;21037;-82
2022/07/28 04:09:06;;;;;;;1.63;1.53;;;15.40;76.40;;;;;;5109097;28;21592;-82
2022/07/28 04:11:33;;;;;;;1.40;1.30;;;15.30;77.50;;;;;;5108686;28;20619;-82
2022/07/28 04:14:01;;;;;;;4.20;1.30;;;15.40;77.60;;;;;;5108173;28;20652;-81
2022/07/28 04:16:28;;;;;;;2.30;1.10;;;15.40;76.60;;;;;;5109289;28;21252;-82
2022/07/28 04:18:55;;;;;;;1.97;1.50;;;15.40;77.30;;;;;;5109133;28;20652;-81
2022/07/28 04:21:22;;;;;;;1.33;1.20;;;15.40;76.50;;;;;;5109029;28;21059;-81
2022/07/28 04:23:49;;;;;;;1.50;1.40;;;15.20;76.50;;;;;;5108129;28;20624;-81
2022/07/28 04:26:17;;;;;;;2.20;1.20;;;15.20;77.20;;;;;;5108206;28;20612;-81
2022/07/28 04:28:44;;;;;;;1.30;1.20;;;15.10;77.20;;;;;;5109398;28;20623;-81
2022/07/28 04:31:12;;;;;;;1.50;1.40;;;15.10;77.60;;;;;;5109195;28;21081;-82
2022/07/28 04:33:39;;;;;;;1.67;1.57;;;15.10;77.70;;;;;;5107076;28;20647;-81
2022/07/28 04:36:06;;;;;;;1.77;1.57;;;15.20;78.10;;;;;;5109027;28;20670;-82
2022/07/28 04:38:35;;;;;;;1.63;1.10;;;15.20;77.40;;;;;;5108626;28;20628;-81
2022/07/28 04:41:01;;;;;;;1.70;1.33;;;15.30;77.60;;;;;;5108421;28;20679;-82
2022/07/28 04:43:28;;;;;;;1.70;1.60;;;15.40;77.80;;;;;;5107650;28;20659;-82
2022/07/28 04:45:55;;;;;;;1.50;1.40;;;15.50;78.30;;;;;;5108943;28;20622;-82
2022/07/28 04:48:24;;;;;;;1.37;1.27;;;15.50;78.70;;;;;;5107938;28;20615;-81
2022/07/28 04:50:52;;;;;;;1.57;1.37;;;15.60;77.70;;;;;;5108447;28;21320;-82
2022/07/28 04:53:19;;;;;;;0.90;0.90;;;15.60;78.70;;;;;;5107637;28;20624;-82
2022/07/28 04:55:46;;;;;;;1.70;1.37;;;15.70;77.60;;;;;;5107102;28;20639;-82
2022/07/28 04:58:13;;;;;;;2.03;1.93;;;15.70;78.30;;;;;;5104594;28;20635;-82
2022/07/28 05:00:40;;;;;;;1.93;1.83;;;15.80;77.70;;;;;;5102929;28;20718;-82
2022/07/28 05:03:13;;;;;;;1.97;1.80;;;15.80;78.20;;;;;;5104752;28;21117;-83
2022/07/28 05:05:42;;;;;;;2.60;1.23;;;15.90;78.80;;;;;;5108366;28;20612;-82
2022/07/28 05:08:09;;;;;;;1.67;1.57;;;15.90;78.90;;;;;;5106749;28;20673;-82
2022/07/28 05:10:35;;;;;;;2.63;1.50;;;15.90;78.10;;;;;;5108896;28;20654;-82
2022/07/28 05:13:06;;;;;;;1.60;1.50;;;15.90;78.60;;;;;;5107613;28;20635;-82
2022/07/28 05:15:33;;;;;;;0.93;0.90;;;16.00;77.50;;;;;;5107805;28;20627;-82
2022/07/28 05:18:00;;;;;;;1.27;1.17;;;16.00;76.40;;;;;;5107936;28;20604;-82
2022/07/28 05:20:27;;;;;;;2.27;1.50;;;16.20;76.80;;;;;;5108474;28;20627;-82
2022/07/28 05:22:56;;;;;;;1.27;1.17;;;16.30;77.30;;;;;;5107796;28;20701;-82
2022/07/28 05:25:24;;;;;;;1.27;1.17;;;16.40;76.00;;;;;;5108958;28;20638;-82
2022/07/28 05:27:52;;;;;;;1.00;0.93;;;16.50;75.90;;;;;;5106633;28;20651;-80
2022/07/28 05:30:20;;;;;;;3.37;1.60;;;16.70;74.90;;;;;;5107790;28;21280;-80
2022/07/28 05:32:47;;;;;;;1.30;1.20;;;16.80;74.80;;;;;;5106582;28;20723;-79
2022/07/28 05:35:15;;;;;;;1.50;1.40;;;16.90;74.20;;;;;;5108035;28;20634;-79
2022/07/28 05:37:42;;;;;;;4.33;2.23;;;16.90;74.80;;;;;;5100200;28;20795;-79
2022/07/28 05:40:13;;;;;;;2.47;1.83;;;16.80;75.20;;;;;;5102253;28;20641;-80
2022/07/28 05:42:41;;;;;;;1.10;1.03;;;16.90;75.90;;;;;;5106870;28;20663;-80
2022/07/28 05:45:09;;;;;;;1.43;1.33;;;16.80;75.20;;;;;;5107412;28;20681;-79
2022/07/28 05:47:45;;;;;;;1.70;1.60;;;16.90;75.70;;;;;;5104873;28;21210;-80
2022/07/28 05:50:12;;;;;;;2.83;1.80;;;16.80;76.00;;;;;;5105365;28;21282;-79
2022/07/28 05:52:39;;;;;;;1.90;1.73;;;16.80;76.70;;;;;;5104965;28;20608;-80
2022/07/28 05:55:07;;;;;;;1.23;1.13;;;16.90;76.80;;;;;;5106736;28;20702;-80
2022/07/28 05:57:35;;;;;;;1.83;1.73;;;16.80;76.60;;;;;;5104918;28;20727;-80
2022/07/28 06:00:04;;;;;;;1.30;1.20;;;16.90;76.00;;;;;;5106738;28;20730;-80
2022/07/28 06:02:30;;;;;;;1.37;1.27;;;16.90;75.80;;;;;;5105750;28;20674;-80
2022/07/28 06:04:57;;;;;;;2.30;1.60;;;17.10;76.00;;;;;;5107313;28;20620;-80
2022/07/28 06:07:24;;;;;;;1.63;1.53;;;17.10;75.80;;;;;;5106475;28;20627;-80
2022/07/28 06:09:51;;;;;;;1.73;1.63;;;17.10;75.80;;;;;;5107270;28;20624;-79
2022/07/28 06:12:18;;;;;;;2.30;1.87;;;17.30;77.40;;;;;;5106427;28;20755;-80
2022/07/28 06:14:46;;;;;;;2.13;1.40;;;17.50;77.20;;;;;;5107081;28;20728;-80
2022/07/28 06:17:14;;;;;;;2.00;1.67;;;17.60;77.30;;;;;;5107138;28;21200;-80
2022/07/28 06:19:41;;;;;;;2.93;2.13;;;17.80;76.50;;;;;;5106764;28;20627;-80
2022/07/28 06:22:08;;;;;;;2.67;2.20;;;18.00;75.20;;;;;;5106045;28;20695;-80
2022/07/28 06:24:35;;;;;;;2.20;2.00;;;18.20;74.90;;;;;;5107787;28;21265;-80
2022/07/28 06:27:02;;;;;;;2.97;2.30;;;18.30;75.30;;;;;;5106306;28;20810;-80
2022/07/28 06:29:29;;;;;;;2.97;2.77;;;18.50;75.50;;;;;;5108436;28;20622;-82
2022/07/28 06:31:57;;;;;;;2.73;2.53;;;18.60;73.50;;;;;;5111442;28;20616;-82
2022/07/28 06:34:24;;;;;;;2.70;2.50;;;18.80;73.90;;;;;;5108448;28;20637;-82
2022/07/28 06:36:51;;;;;;;2.50;2.30;;;18.90;73.80;;;;;;5110874;28;20665;-82
2022/07/28 06:39:18;;;;;;;1.73;1.60;;;19.00;73.00;;;;;;5112479;28;20628;-82
2022/07/28 06:41:45;;;;;;;3.53;2.60;;;19.10;73.00;;;;;;5111418;28;20848;-83
2022/07/28 06:44:12;;;;;;;2.80;2.60;;;19.30;72.20;;;;;;5111967;28;20628;-82
2022/07/28 06:46:39;;;;;;;3.30;3.00;;;19.60;71.90;;;;;;5112371;28;20684;-82
2022/07/28 06:49:07;;;;;;;3.80;2.93;;;19.60;71.80;;;;;;5111584;28;20722;-83
2022/07/28 06:51:34;;;;;;;2.97;2.67;;;19.60;72.00;;;;;;5111145;28;20631;-83
2022/07/28 06:54:01;;;;;;;2.70;2.50;;;19.70;71.80;;;;;;5111572;28;20628;-82
2022/07/28 06:56:28;;;;;;;3.33;2.80;;;19.80;72.00;;;;;;5111319;28;20716;-83
2022/07/28 06:58:54;;;;;;;3.07;2.87;;;19.70;72.00;;;;;;5111571;28;20714;-83
2022/07/28 07:01:21;;;;;;;3.53;2.70;;;19.90;72.80;;;;;;5110889;28;20651;-82
2022/07/28 07:03:48;;;;;;;2.83;2.63;;;20.10;70.70;;;;;;5108719;28;21202;-81
2022/07/28 07:06:16;;;;;;;5.50;2.90;;;20.10;70.30;;;;;;5111882;28;21047;-82
2022/07/28 07:08:46;;;;;;;4.67;3.80;;;20.20;71.10;;;;;;5112154;28;20631;-82
2022/07/28 07:11:12;;;;;;;3.40;3.20;;;20.30;71.10;;;;;;5110644;28;20664;-82
2022/07/28 07:13:39;;;;;;;3.80;3.50;;;20.50;71.30;;;;;;5110012;28;20663;-82
2022/07/28 07:16:06;;;;;;;3.40;3.10;;;20.60;70.00;;;;;;5110822;28;20608;-82
2022/07/28 07:18:33;;;;;;;3.40;3.10;;;20.70;70.60;;;;;;5112154;28;20654;-83
2022/07/28 07:21:00;;;;;;;3.60;3.30;;;20.60;70.40;;;;;;5111836;28;20645;-82
2022/07/28 07:23:28;;;;;;;4.00;3.30;;;20.90;70.20;;;;;;5107117;28;20652;-83
2022/07/28 07:25:55;;;;;;;4.77;3.43;;;21.00;69.80;;;;;;5110170;28;20651;-83
2022/07/28 07:28:22;;;;;;;3.73;3.17;;;21.00;70.40;;;;;;5110373;28;20611;-83
2022/07/28 07:30:49;;;;;;;3.23;2.57;;;21.10;70.00;;;;;;5109607;28;21218;-83
2022/07/28 07:33:16;;;;;;;3.87;3.00;;;21.20;70.30;;;;;;5109717;28;20688;-82
2022/07/28 07:35:43;;;;;;;3.00;2.80;;;21.30;70.30;;;;;;5110980;28;20628;-82
2022/07/28 07:38:10;;;;;;;6.10;3.43;;;21.20;70.90;;;;;;5109841;28;20679;-82
2022/07/28 07:40:38;;;;;;;3.30;3.00;;;21.30;70.90;;;;;;5109647;28;20627;-82
2022/07/28 07:43:05;;;;;;;6.40;3.87;;;21.40;70.60;;;;;;5110359;28;20762;-83
2022/07/28 07:45:33;;;;;;;4.07;3.70;;;21.50;70.30;;;;;;5109558;28;21496;-82
2022/07/28 07:48:00;;;;;;;3.03;2.83;;;21.60;68.40;;;;;;5110154;28;20671;-83
2022/07/28 07:50:27;;;;;;;4.13;3.73;;;21.70;68.10;;;;;;5109614;28;20725;-83
2022/07/28 07:52:54;;;;;;;3.50;3.20;;;21.50;70.00;;;;;;5108985;28;20627;-83
2022/07/28 07:55:21;;;;;;;3.33;3.07;;;21.50;70.50;;;;;;5107097;28;20616;-82
2022/07/28 07:57:49;;;;;;;3.83;3.20;;;21.70;70.60;;;;;;5108408;28;20612;-82
2022/07/28 08:00:17;;;;;;;4.90;3.57;;;21.60;69.50;;;;;;5109499;28;21231;-83
2022/07/28 08:02:44;;;;;;;3.73;2.83;;;21.70;70.50;;;;;;5107928;28;20681;-84
2022/07/28 08:05:11;;;;;;;4.57;4.17;;;22.00;70.80;;;;;;5109970;28;21177;-84
2022/07/28 08:07:38;;;;;;;3.40;3.00;;;22.20;68.60;;;;;;5110880;28;21011;-83
2022/07/28 08:10:06;;;;;;;3.50;3.20;;;22.30;68.30;;;;;;5110513;28;20669;-84
2022/07/28 08:12:33;;;;;;;3.93;3.63;;;22.30;68.80;;;;;;5107789;28;20620;-83
2022/07/28 08:15:01;;;;;;;3.70;3.20;;;22.40;68.10;;;;;;5109904;28;20630;-84
2022/07/28 08:17:28;;;;;;;3.63;3.33;;;22.70;67.50;;;;;;5109528;28;20652;-85
2022/07/28 08:19:56;;;;;;;4.07;3.60;;;22.70;66.70;;;;;;5109013;28;20641;-84
2022/07/28 08:22:26;;;;;;;4.50;4.10;;;22.90;66.90;;;;;;5107368;28;20786;-84
2022/07/28 08:24:53;;;;;;;3.87;3.47;;;22.80;68.30;;;;;;5107114;28;20709;-84
2022/07/28 08:27:19;;;;;;;3.97;3.67;;;22.70;69.60;;;;;;5108452;28;20623;-84
2022/07/28 08:29:51;;;;;;;3.93;3.47;;;22.90;68.80;;;;;;5109440;28;21176;-86
2022/07/28 08:32:20;;;;;;;4.07;3.67;;;23.00;68.70;;;;;;5105596;28;20738;-83
2022/07/28 08:34:47;;;;;;;6.00;4.10;;;22.60;66.20;;;;;;5107691;28;20718;-83
2022/07/28 08:37:14;;;;;;;4.37;3.87;;;22.80;68.80;;;;;;5108226;28;20676;-84
2022/07/28 08:39:41;;;;;;;4.10;3.70;;;23.10;68.70;;;;;;5108345;28;20721;-84
2022/07/28 08:42:15;;;;;;;3.50;3.20;;;23.20;68.70;;;;;;5107909;28;20746;-83
2022/07/28 08:44:51;;;;;;;4.53;4.13;;;23.40;67.00;;;;;;5106769;28;20963;-84
2022/07/28 08:47:21;;;;;;;4.03;3.70;;;23.30;66.10;;;;;;5104190;28;21023;-84
2022/07/28 08:49:49;;;;;;;3.77;3.47;;;23.20;66.60;;;;;;5107051;28;20663;-85
2022/07/28 08:52:19;;;;;;;4.70;3.43;;;23.40;66.70;;;;;;5103367;28;20624;-83
2022/07/28 08:54:48;;;;;;;3.53;3.27;;;23.80;65.00;;;;;;5107440;28;20612;-83
2022/07/28 08:57:20;;;;;;;4.57;4.07;;;23.80;66.30;;;;;;5107857;28;20616;-83
2022/07/28 08:59:49;;;;;;;5.73;3.93;;;23.90;66.50;;;;;;5106967;28;20615;-83
2022/07/28 09:02:17;;;;;;;4.97;4.07;;;24.20;65.30;;;;;;5103470;28;20698;-83
2022/07/28 09:04:46;;;;;;;4.60;3.77;;;24.20;64.30;;;;;;5107012;28;21136;-83
2022/07/28 09:07:13;;;;;;;6.27;4.40;;;23.80;65.30;;;;;;5107290;28;20628;-84
2022/07/28 09:09:40;;;;;;;4.10;3.70;;;24.00;65.50;;;;;;5108566;28;20623;-83
2022/07/28 09:12:07;;;;;;;3.47;3.23;;;24.30;63.40;;;;;;5107923;28;20616;-83
2022/07/28 09:14:34;;;;;;;4.63;4.23;;;24.40;65.10;;;;;;5107440;28;20665;-84
2022/07/28 09:17:11;;;;;;;4.50;4.10;;;24.50;65.20;;;;;;5103581;28;20619;-84
2022/07/28 09:19:40;;;;;;;3.97;3.60;;;24.70;65.60;;;;;;5107592;28;20628;-83
2022/07/28 09:22:08;;;;;;;3.90;3.60;;;24.80;63.30;;;;;;5113021;28;21327;-84
2022/07/28 09:24:37;;;;;;;4.03;3.63;;;24.90;62.30;;;;;;5109080;28;20651;-83
2022/07/28 09:27:06;;;;;;;4.77;4.37;;;25.00;61.90;;;;;;5107381;28;21017;-83
2022/07/28 09:29:34;;;;;;;3.77;3.47;;;25.00;64.60;;;;;;5089275;28;20636;-83
2022/07/28 09:32:01;;;;;;;4.10;3.73;;;24.90;64.10;;;;;;5102542;28;20636;-84
2022/07/28 09:34:28;;;;;;;3.90;3.60;;;25.20;62.80;;;;;;5105840;28;20689;-84
2022/07/28 09:36:55;;;;;;;13.63;4.50;;;25.30;62.20;;;;;;5101568;28;20695;-83
2022/07/28 09:39:34;;;;;;;4.13;3.83;;;25.40;61.40;;;;;;5086770;28;20629;-84
2022/07/28 09:42:01;;;;;;;4.27;3.87;;;25.60;61.40;;;;;;5097555;28;20627;-84
2022/07/28 09:44:29;;;;;;;4.90;4.40;;;25.70;62.40;;;;;;5094732;28;20676;-84
2022/07/28 09:46:56;;;;;;;4.20;3.80;;;25.80;62.90;;;;;;5103007;28;20711;-84
2022/07/28 09:49:39;;;;;;;4.20;3.67;;;25.90;61.70;;;;;;5086716;28;20717;-84
2022/07/28 09:52:06;;;;;;;3.63;3.33;;;26.10;61.40;;;;;;5087769;28;20635;-84
2022/07/28 09:54:34;;;;;;;4.77;3.80;;;26.10;60.70;;;;;;5085047;28;20731;-84
2022/07/28 09:57:02;;;;;;;3.87;3.57;;;25.70;60.90;;;;;;5087032;28;20660;-84
2022/07/28 09:59:40;;;;;;;3.83;3.63;;;25.70;60.40;;;;;;5092077;28;20628;-84
2022/07/28 10:02:07;;;;;;;4.00;3.70;;;25.90;60.70;;;;;;5102603;28;20677;-85
2022/07/28 10:04:36;;;;;;;3.80;3.50;;;26.10;59.70;;;;;;5110799;28;20731;-84
2022/07/28 10:07:08;;;;;;;4.17;3.87;;;26.50;58.70;;;;;;5110844;28;20672;-84
2022/07/28 10:09:38;;;;;;;3.80;3.50;;;26.30;58.50;;;;;;5109891;27;20631;-82
2022/07/28 10:12:15;;;;;;;4.20;3.90;;;26.10;59.70;;;;;;5111041;28;21030;-82
2022/07/28 10:14:42;;;;;;;5.47;3.80;;;26.30;59.40;;;;;;5109101;28;20722;-82
2022/07/28 10:17:09;;;;;;;3.97;3.67;;;26.50;59.10;;;;;;5112966;27;20627;-82
2022/07/28 10:19:37;;;;;;;4.30;3.90;;;26.50;59.50;;;;;;5111956;27;20658;-82
2022/07/28 10:22:05;;;;;;;4.60;4.10;;;26.50;60.50;;;;;;5114031;28;20708;-81
2022/07/28 10:24:38;;;;;;;4.10;3.70;;;26.20;60.80;;;;;;5108952;28;20757;-81
2022/07/28 10:27:06;;;;;;;3.93;3.63;;;26.40;59.80;;;;;;5114582;28;21045;-82
2022/07/28 10:29:34;;;;;;;4.13;3.83;;;26.60;58.40;;;;;;5114418;28;20615;-82
2022/07/28 10:32:05;;;;;;;4.20;3.87;;;26.60;58.60;;;;;;5113270;28;20622;-82
2022/07/28 10:34:35;;;;;;;3.93;3.63;;;26.60;58.30;;;;;;5114020;28;20630;-81
2022/07/28 10:37:05;;;;;;;4.73;3.70;;;26.60;59.20;;;;;;5114489;28;21548;-82
2022/07/28 10:39:41;;;;;;;4.57;4.17;;;26.50;58.70;;;;;;5110543;27;21321;-82
2022/07/28 10:42:10;;;;;;;4.40;4.10;;;26.60;59.70;;;;;;5112742;28;20724;-82
2022/07/28 10:44:38;;;;;;;3.50;3.20;;;26.80;59.30;;;;;;5106587;28;20740;-82
2022/07/28 10:47:08;;;;;;;4.53;4.23;;;26.90;58.90;;;;;;5108831;27;20623;-82
2022/07/28 10:49:36;;;;;;;3.50;3.20;;;26.70;58.40;;;;;;5111906;28;20736;-82
2022/07/28 10:52:06;;;;;;;3.80;3.50;;;26.70;59.20;;;;;;5112941;27;20624;-83
2022/07/28 10:54:36;;;;;;;3.40;3.10;;;27.20;58.70;;;;;;5112824;28;21182;-82
2022/07/28 10:57:07;;;;;;;4.20;3.80;;;27.70;58.50;;;;;;5110754;28;20664;-82
2022/07/28 11:00:04;;;;;;;3.80;3.50;;;28.00;56.90;;;;;;5112066;27;21113;-82
2022/07/28 11:02:47;;;;;;;4.37;4.03;;;27.50;57.90;;;;;;5111338;28;21408;-82
2022/07/28 11:05:35;;;;;;;3.20;3.00;;;27.30;57.00;;;;;;5110770;28;20704;-82
2022/07/28 11:08:04;;;;;;;4.47;4.17;;;27.20;57.00;;;;;;5110679;28;20619;-82
2022/07/28 11:10:44;;;;;;;4.73;3.70;;;27.20;57.20;;;;;;5112166;27;20616;-82
2022/07/28 11:13:25;;;;;;;3.90;3.60;;;27.00;57.40;;;;;;5110610;28;20724;-82
2022/07/28 11:15:53;;;;;;;4.37;4.00;;;27.00;56.80;;;;;;5107132;28;20692;-82
2022/07/28 11:18:20;;;;;;;3.67;3.37;;;26.70;58.50;;;;;;5106737;28;21017;-82
2022/07/28 11:21:08;;;;;;;3.30;3.10;;;26.30;59.10;;;;;;5109273;28;20718;-81
2022/07/28 11:23:43;;;;;;;4.30;3.90;;;26.50;60.70;;;;;;5108766;28;21339;-81
2022/07/28 11:26:33;;;;;;;3.87;3.57;;;27.40;56.90;;;;;;5109829;28;20626;-82
2022/07/28 11:29:21;;;;;;;4.33;3.63;;;27.80;56.00;;;;;;5110095;28;20628;-83
2022/07/28 11:32:02;;;;;;;3.20;3.00;;;28.00;55.30;;;;;;5110356;28;20723;-82
2022/07/28 11:35:08;;;;;;;3.90;3.50;;;28.00;55.90;;;;;;5106345;28;20622;-82
2022/07/28 11:38:12;;;;;;;3.63;3.43;;;27.90;55.60;;;;;;5109783;28;20627;-81
2022/07/28 11:40:42;;;;;;;4.10;3.80;;;27.80;56.40;;;;;;5109165;28;20712;-83
2022/07/28 11:43:45;;;;;;;3.07;2.87;;;27.80;55.00;;;;;;5108173;28;20690;-82
2022/07/28 11:46:38;;;;;;;3.83;3.53;;;27.90;56.20;;;;;;5108992;28;20974;-82
2022/07/28 11:49:20;;;;;;;3.67;3.37;;;28.30;55.00;;;;;;5104091;28;20653;-82
2022/07/28 11:52:19;;;;;;;4.20;3.90;;;29.00;54.30;;;;;;5109775;28;20718;-82
2022/07/28 11:54:55;;;;;;;3.33;3.13;;;29.10;54.20;;;;;;5102126;28;20643;-82
2022/07/28 11:57:24;;;;;;;5.90;4.00;;;28.90;54.50;;;;;;5108744;28;20633;-82
2022/07/28 11:59:54;;;;;;;3.60;3.30;;;28.80;54.30;;;;;;5109183;28;20693;-83
2022/07/28 12:02:29;;;;;;;3.90;3.60;;;28.60;53.50;;;;;;5108646;28;20738;-82
2022/07/28 12:04:59;;;;;;;4.00;3.70;;;29.00;53.90;;;;;;5107563;28;20662;-82
2022/07/28 12:07:33;;;;;;;3.73;3.43;;;29.20;53.40;;;;;;5109362;28;20612;-82
2022/07/28 12:10:00;;;;;;;4.70;4.30;;;30.20;53.50;;;;;;5109247;28;20643;-82
2022/07/28 12:12:27;;;;;;;3.50;3.20;;;31.10;51.40;;;;;;5108549;28;20659;-83
2022/07/28 12:14:56;;;;;;;3.30;3.10;;;30.70;50.20;;;;;;5109931;28;20616;-82
2022/07/28 12:17:23;;;;;;;4.30;3.90;;;30.30;50.10;;;;;;5110800;28;20654;-82
2022/07/28 12:19:51;;;;;;;3.60;3.30;;;29.90;50.50;;;;;;5110094;28;20642;-82
2022/07/28 12:22:18;;;;;;;3.30;3.10;;;29.80;50.50;;;;;;5108249;28;20627;-81
2022/07/28 12:24:45;;;;;;;3.77;3.47;;;29.50;50.80;;;;;;5108661;28;20675;-81
2022/07/28 12:27:12;;;;;;;3.27;3.03;;;30.00;50.70;;;;;;5109588;28;20707;-82
2022/07/28 12:29:39;;;;;;;3.47;3.27;;;30.80;50.80;;;;;;5109347;28;21181;-82
2022/07/28 12:32:08;;;;;;;4.10;3.27;;;31.60;49.20;;;;;;5108753;28;20719;-82
2022/07/28 12:34:38;;;;;;;2.90;2.70;;;32.50;48.20;;;;;;5108760;28;20620;-83
2022/07/28 12:37:08;;;;;;;2.97;2.77;;;32.50;46.30;;;;;;5108958;28;20646;-83
2022/07/28 12:39:38;;;;;;;3.37;3.13;;;32.10;45.40;;;;;;5109037;28;20627;-82
2022/07/28 12:42:07;;;;;;;3.10;2.90;;;31.50;46.00;;;;;;5108699;28;20612;-83
2022/07/28 12:44:38;;;;;;;2.90;2.70;;;31.20;47.30;;;;;;5100905;28;20732;-83
2022/07/28 12:47:07;;;;;;;3.20;3.00;;;31.00;47.70;;;;;;5108757;28;20620;-84
2022/07/28 12:49:35;;;;;;;3.07;2.87;;;30.90;47.30;;;;;;5107867;28;20630;-84
2022/07/28 12:52:16;;;;;;;3.47;3.20;;;30.60;47.30;;;;;;5105384;28;20639;-85
2022/07/28 12:54:44;;;;;;;3.20;2.90;;;30.50;47.50;;;;;;5108249;28;20624;-85
2022/07/28 12:57:11;;;;;;;3.33;3.13;;;30.60;48.00;;;;;;5104305;28;20648;-84
2022/07/28 12:59:39;;;;;;;4.57;4.00;;;30.90;47.00;;;;;;5109015;28;20616;-84
2022/07/28 13:02:08;;;;;;;4.10;3.80;;;30.90;47.70;;;;;;5108081;28;20619;-84